Time;durP1;ratioP1;P1;durP2;ratioP2;P2;SDS_P1;SDS_P2;PMS_P1;PMS_P2;Temp;Humidity;BMP_temperature;BMP_pressure;BME280_temperature;BME280_humidity;BME280_pressure;Samples;Min_cycle;Max_cycle;Signal;HPM_P1;HPM_P2
2023/06/30 00:01:30;;;;;;;8.75;5.00;;;12.70;99.90;;;;;;5049285;28;20415;-92
2023/06/30 00:03:56;;;;;;;13.45;5.82;;;12.60;99.90;;;;;;5051031;28;20811;-92
2023/06/30 00:06:22;;;;;;;10.85;6.25;;;12.80;99.90;;;;;;5050549;28;20406;-92
2023/06/30 00:08:48;;;;;;;12.80;7.38;;;12.90;99.90;;;;;;5050866;28;20415;-93
2023/06/30 00:11:15;;;;;;;10.80;6.30;;;12.60;99.90;;;;;;5050920;28;20404;-92
2023/06/30 00:13:40;;;;;;;9.25;6.47;;;12.70;99.90;;;;;;5050427;28;20770;-94
2023/06/30 00:16:06;;;;;;;10.07;6.15;;;12.60;99.90;;;;;;5050641;28;20404;-93
2023/06/30 00:18:32;;;;;;;12.05;7.38;;;12.70;99.90;;;;;;5066772;28;20444;-93
2023/06/30 00:20:57;;;;;;;11.63;7.43;;;12.50;99.90;;;;;;5050875;28;20415;-92
2023/06/30 00:23:27;;;;;;;11.00;7.28;;;12.50;99.90;;;;;;5050557;28;20745;-92
2023/06/30 00:25:53;;;;;;;8.82;5.65;;;12.50;99.90;;;;;;5050651;28;20434;-93
2023/06/30 00:28:19;;;;;;;10.98;6.60;;;12.70;99.90;;;;;;5050812;28;20404;-92
2023/06/30 00:30:44;;;;;;;11.93;7.95;;;12.50;99.90;;;;;;5066568;28;21256;-93
2023/06/30 00:33:11;;;;;;;12.48;7.68;;;12.30;99.90;;;;;;5050757;28;20418;-93
2023/06/30 00:35:37;;;;;;;15.37;9.43;;;12.40;99.90;;;;;;5050160;28;20423;-93
2023/06/30 00:38:03;;;;;;;10.35;7.50;;;12.60;99.90;;;;;;5050723;28;20450;-92
2023/06/30 00:40:28;;;;;;;10.85;8.73;;;12.30;99.90;;;;;;5066386;28;20407;-92
2023/06/30 00:42:54;;;;;;;13.83;8.60;;;12.20;99.90;;;;;;5050141;28;20399;-93
2023/06/30 00:45:20;;;;;;;12.65;8.77;;;12.30;99.90;;;;;;5049954;28;20450;-93
2023/06/30 00:47:46;;;;;;;12.63;8.45;;;12.20;99.90;;;;;;5050242;28;20411;-93
2023/06/30 00:50:16;;;;;;;12.85;8.32;;;12.20;99.90;;;;;;5050351;28;20513;-93
2023/06/30 00:52:44;;;;;;;11.77;7.33;;;12.20;99.90;;;;;;5049935;28;21193;-92
2023/06/30 00:55:12;;;;;;;11.52;8.50;;;12.10;99.90;;;;;;5050231;28;20478;-92
2023/06/30 00:57:38;;;;;;;10.00;7.13;;;12.20;99.90;;;;;;5049701;28;20408;-92
2023/06/30 01:00:11;;;;;;;8.00;6.23;;;12.30;99.90;;;;;;5050332;28;20483;-92
2023/06/30 01:02:48;;;;;;;9.88;6.07;;;12.00;99.90;;;;;;5049786;28;20396;-92
2023/06/30 01:05:25;;;;;;;10.55;6.65;;;12.00;99.90;;;;;;5049418;28;20502;-92
2023/06/30 01:08:01;;;;;;;11.23;7.40;;;11.90;99.90;;;;;;5050435;28;20755;-93
2023/06/30 01:10:28;;;;;;;11.82;6.97;;;11.90;99.90;;;;;;5049843;28;20454;-93
2023/06/30 01:12:54;;;;;;;12.02;5.85;;;11.90;99.90;;;;;;5051389;28;20511;-93
2023/06/30 01:15:23;;;;;;;9.77;6.43;;;12.10;99.90;;;;;;5049746;28;20962;-92
2023/06/30 01:17:53;;;;;;;10.75;6.13;;;11.90;99.90;;;;;;5049883;28;20438;-93
2023/06/30 01:20:21;;;;;;;7.88;5.40;;;12.10;99.90;;;;;;5049953;28;20412;-93
2023/06/30 01:22:54;;;;;;;9.23;6.33;;;11.90;99.90;;;;;;5049355;28;20399;-92
2023/06/30 01:25:26;;;;;;;9.90;6.45;;;11.90;99.90;;;;;;5067148;28;20487;-92
2023/06/30 01:27:52;;;;;;;11.68;6.40;;;11.50;99.90;;;;;;5049449;28;20494;-93
2023/06/30 01:30:19;;;;;;;7.63;5.22;;;11.70;99.90;;;;;;5066734;28;20507;-91
2023/06/30 01:32:45;;;;;;;10.10;6.70;;;11.70;99.90;;;;;;5049532;28;20399;-92
2023/06/30 01:35:12;;;;;;;9.32;5.15;;;11.70;99.90;;;;;;5049531;28;21149;-92
2023/06/30 01:37:37;;;;;;;11.48;6.05;;;11.50;99.90;;;;;;5049863;28;20474;-92
2023/06/30 01:40:04;;;;;;;9.18;6.20;;;11.80;99.90;;;;;;5049316;28;20404;-92
2023/06/30 01:42:31;;;;;;;10.68;6.60;;;11.60;99.90;;;;;;5049465;28;20406;-90
2023/06/30 01:44:58;;;;;;;8.52;6.18;;;11.70;99.90;;;;;;5066460;28;21125;-92
2023/06/30 01:47:24;;;;;;;8.57;5.45;;;11.60;99.90;;;;;;5050011;28;20494;-93
2023/06/30 01:49:49;;;;;;;9.23;5.70;;;11.60;99.90;;;;;;5049452;28;20431;-92
2023/06/30 01:52:16;;;;;;;9.75;6.90;;;11.70;99.90;;;;;;5049504;28;20752;-92
2023/06/30 01:54:42;;;;;;;10.10;6.25;;;11.50;99.90;;;;;;5066326;28;20508;-92
2023/06/30 01:57:07;;;;;;;18.50;11.25;;;11.60;99.90;;;;;;5048711;28;20858;-93
2023/06/30 01:59:33;;;;;;;12.23;7.00;;;11.50;99.90;;;;;;5049535;28;20431;-92
2023/06/30 02:01:59;;;;;;;10.80;7.93;;;11.40;99.90;;;;;;5049642;28;20537;-92
2023/06/30 02:04:24;;;;;;;8.83;6.33;;;11.30;99.90;;;;;;5050151;28;20942;-92
2023/06/30 02:06:50;;;;;;;11.47;7.57;;;11.30;99.90;;;;;;5048613;28;20926;-92
2023/06/30 02:09:16;;;;;;;9.65;5.47;;;11.40;99.90;;;;;;5049223;28;20396;-92
2023/06/30 02:11:41;;;;;;;8.93;6.18;;;11.30;99.90;;;;;;5049543;28;20904;-92
2023/06/30 02:14:07;;;;;;;9.23;5.73;;;11.00;99.90;;;;;;5048912;28;20522;-92
2023/06/30 02:16:33;;;;;;;10.90;6.55;;;11.10;99.90;;;;;;5049636;28;20492;-92
2023/06/30 02:18:58;;;;;;;8.53;6.07;;;11.30;99.90;;;;;;5049353;28;20478;-92
2023/06/30 02:21:25;;;;;;;8.95;6.22;;;11.20;99.90;;;;;;5049175;28;20400;-92
2023/06/30 02:23:51;;;;;;;11.75;7.70;;;11.30;99.90;;;;;;5049421;28;20490;-92
2023/06/30 02:26:17;;;;;;;11.70;6.80;;;11.10;99.90;;;;;;5052862;28;20983;-92
2023/06/30 02:28:42;;;;;;;10.23;7.82;;;11.10;99.90;;;;;;5052545;28;20497;-92
2023/06/30 02:31:08;;;;;;;10.73;7.68;;;11.20;99.90;;;;;;5052811;28;20395;-92
2023/06/30 02:33:34;;;;;;;15.90;10.25;;;11.30;99.90;;;;;;5069044;28;20417;-92
2023/06/30 02:36:02;;;;;;;12.57;7.55;;;11.10;99.90;;;;;;5052171;28;20428;-92
2023/06/30 02:38:29;;;;;;;24.98;7.68;;;11.00;99.90;;;;;;5052716;28;20404;-93
2023/06/30 02:40:54;;;;;;;23.58;8.90;;;10.90;99.90;;;;;;5052621;28;20443;-91
2023/06/30 02:43:20;;;;;;;8.77;6.47;;;11.00;99.90;;;;;;5052291;28;20443;-92
2023/06/30 02:45:46;;;;;;;10.53;7.57;;;11.00;99.90;;;;;;5052248;28;20408;-92
2023/06/30 02:48:11;;;;;;;14.73;9.77;;;11.20;99.90;;;;;;5052192;28;20469;-93
2023/06/30 02:50:37;;;;;;;15.55;10.90;;;11.00;99.90;;;;;;5052536;28;20504;-92
2023/06/30 02:53:03;;;;;;;9.83;6.87;;;11.00;99.90;;;;;;5052128;28;20450;-92
2023/06/30 02:55:29;;;;;;;15.65;9.27;;;11.00;99.90;;;;;;5052264;28;20514;-92
2023/06/30 02:57:54;;;;;;;6.90;6.20;;;11.00;99.90;;;;;;5051783;28;20396;-91
2023/06/30 03:00:20;;;;;;;13.33;8.43;;;11.00;99.90;;;;;;5052330;28;20764;-92
2023/06/30 03:02:46;;;;;;;13.23;9.60;;;10.80;99.90;;;;;;5051804;28;21035;-93
2023/06/30 03:05:11;;;;;;;14.63;9.27;;;11.00;99.90;;;;;;5052393;28;20404;-92
2023/06/30 03:07:37;;;;;;;13.80;8.70;;;11.00;99.90;;;;;;5051535;28;20465;-92
2023/06/30 03:10:03;;;;;;;15.80;9.37;;;11.10;99.90;;;;;;5052444;28;20784;-90
2023/06/30 03:12:29;;;;;;;14.75;9.55;;;10.90;99.90;;;;;;5051998;28;20408;-92
2023/06/30 03:14:54;;;;;;;11.80;8.23;;;11.20;99.90;;;;;;5051484;28;20458;-92
2023/06/30 03:17:20;;;;;;;14.23;11.10;;;11.00;99.90;;;;;;5052160;28;20400;-92
2023/06/30 03:19:46;;;;;;;11.07;8.68;;;11.00;99.90;;;;;;5051787;28;20420;-92
2023/06/30 03:22:11;;;;;;;14.65;10.90;;;11.00;99.90;;;;;;5051649;28;20396;-92
2023/06/30 03:24:38;;;;;;;17.43;11.77;;;11.20;99.90;;;;;;5051916;28;20408;-92
2023/06/30 03:27:04;;;;;;;15.95;12.13;;;11.00;99.90;;;;;;5051587;28;20408;-92
2023/06/30 03:29:30;;;;;;;18.65;13.13;;;10.80;99.90;;;;;;5051575;28;20395;-92
2023/06/30 03:31:55;;;;;;;19.05;12.60;;;10.50;99.90;;;;;;5051448;28;20400;-92
2023/06/30 03:34:21;;;;;;;12.63;10.07;;;10.90;99.90;;;;;;5051328;28;20428;-93
2023/06/30 03:36:47;;;;;;;18.55;13.52;;;10.80;99.90;;;;;;5066735;28;20411;-92
2023/06/30 03:39:13;;;;;;;13.55;8.90;;;11.10;99.90;;;;;;5051707;28;20408;-92
2023/06/30 03:41:40;;;;;;;12.07;9.82;;;10.80;99.90;;;;;;5050766;28;20717;-92
2023/06/30 03:44:06;;;;;;;12.68;10.88;;;10.80;99.90;;;;;;5067911;28;20465;-92
2023/06/30 03:46:32;;;;;;;20.03;13.03;;;10.90;99.90;;;;;;5050909;28;20404;-92
2023/06/30 03:48:57;;;;;;;17.43;11.77;;;10.70;99.90;;;;;;5051183;28;20490;-93
2023/06/30 03:51:23;;;;;;;17.80;12.60;;;11.10;99.90;;;;;;5051400;28;20769;-92
2023/06/30 03:53:49;;;;;;;15.13;11.30;;;11.00;99.90;;;;;;5051069;28;20469;-93
2023/06/30 03:56:14;;;;;;;12.63;9.77;;;10.80;99.90;;;;;;5051800;28;20900;-92
2023/06/30 03:58:40;;;;;;;11.73;9.43;;;10.90;99.90;;;;;;5050793;28;20400;-92
2023/06/30 04:01:06;;;;;;;15.17;10.83;;;10.90;99.90;;;;;;5051343;28;21241;-91
2023/06/30 04:03:33;;;;;;;13.55;11.18;;;11.00;99.90;;;;;;5051266;28;20468;-92
2023/06/30 04:05:59;;;;;;;16.33;11.57;;;11.00;99.90;;;;;;5050956;28;20447;-93
2023/06/30 04:08:24;;;;;;;9.68;8.38;;;11.10;99.90;;;;;;5051196;28;20581;-92
2023/06/30 04:10:50;;;;;;;9.57;8.52;;;11.10;99.90;;;;;;5050515;28;20915;-93
2023/06/30 04:13:16;;;;;;;10.83;8.80;;;11.20;99.90;;;;;;5034015;28;20772;-92
2023/06/30 04:15:41;;;;;;;15.87;11.73;;;11.60;99.90;;;;;;5050446;28;20500;-92
2023/06/30 04:18:07;;;;;;;14.60;11.40;;;11.30;99.90;;;;;;5051060;28;20830;-93
2023/06/30 04:20:33;;;;;;;21.40;15.10;;;11.50;99.90;;;;;;5067621;28;20411;-93
2023/06/30 04:22:58;;;;;;;36.85;18.33;;;11.60;99.90;;;;;;5050666;28;20408;-93
2023/06/30 04:25:24;;;;;;;26.65;16.67;;;11.60;99.90;;;;;;5050388;28;20772;-92
2023/06/30 04:27:50;;;;;;;19.23;13.03;;;11.60;99.90;;;;;;5050545;28;20773;-93
2023/06/30 04:30:15;;;;;;;16.95;13.40;;;11.90;99.90;;;;;;5050648;28;20403;-92
2023/06/30 04:32:41;;;;;;;14.93;11.50;;;11.80;99.90;;;;;;5050056;28;20418;-93
2023/06/30 04:35:08;;;;;;;18.05;12.50;;;11.90;99.90;;;;;;5067103;28;20491;-92
2023/06/30 04:37:40;;;;;;;22.58;12.70;;;12.00;99.90;;;;;;5066607;28;20942;-90
2023/06/30 04:40:09;;;;;;;15.82;11.57;;;12.30;99.90;;;;;;5050751;28;20494;-92
2023/06/30 04:42:36;;;;;;;20.50;11.77;;;12.30;99.90;;;;;;5050384;28;20764;-92
2023/06/30 04:45:03;;;;;;;15.43;11.57;;;12.70;99.90;;;;;;5050420;28;20553;-92
2023/06/30 04:47:28;;;;;;;17.03;11.07;;;12.60;99.90;;;;;;5050245;28;20415;-92
2023/06/30 04:49:55;;;;;;;17.10;10.30;;;12.90;99.90;;;;;;5049856;28;20407;-92
2023/06/30 04:52:20;;;;;;;15.50;9.20;;;13.00;99.90;;;;;;5050729;28;20443;-91
2023/06/30 04:54:46;;;;;;;13.07;8.60;;;13.30;99.90;;;;;;5050037;28;20945;-92
2023/06/30 04:57:12;;;;;;;15.52;9.68;;;13.30;99.90;;;;;;5050188;28;20395;-91
2023/06/30 04:59:38;;;;;;;13.83;8.40;;;13.20;99.90;;;;;;5049938;28;20519;-92
2023/06/30 05:02:04;;;;;;;12.13;8.45;;;13.50;99.90;;;;;;5050152;28;20427;-92
2023/06/30 05:04:29;;;;;;;13.27;8.40;;;13.90;99.90;;;;;;5052869;28;20513;-93
2023/06/30 05:06:55;;;;;;;15.60;9.02;;;13.70;99.90;;;;;;5052139;28;20968;-92
2023/06/30 05:09:22;;;;;;;15.13;8.47;;;13.80;99.90;;;;;;5053066;28;20418;-92
2023/06/30 05:11:48;;;;;;;17.60;8.00;;;14.00;99.90;;;;;;5052593;28;20420;-92
2023/06/30 05:14:14;;;;;;;12.73;6.57;;;14.10;99.90;;;;;;5053256;28;20483;-92
2023/06/30 05:16:40;;;;;;;10.90;5.70;;;14.30;99.90;;;;;;5051422;28;20414;-92
2023/06/30 05:19:06;;;;;;;10.90;6.30;;;14.40;99.90;;;;;;5053534;28;20471;-93
2023/06/30 05:21:31;;;;;;;11.63;5.60;;;14.60;99.90;;;;;;5052136;28;20440;-93
2023/06/30 05:23:57;;;;;;;10.50;5.40;;;14.70;99.90;;;;;;5069172;28;20432;-93
2023/06/30 05:26:23;;;;;;;12.60;5.78;;;14.80;99.90;;;;;;5052427;28;20412;-93
2023/06/30 05:28:48;;;;;;;12.48;6.45;;;15.00;99.90;;;;;;5052016;28;20763;-94
2023/06/30 05:31:14;;;;;;;8.77;4.67;;;15.30;99.90;;;;;;5052896;28;20417;-94
2023/06/30 05:33:40;;;;;;;10.43;5.10;;;15.30;99.90;;;;;;5051666;28;20528;-93
2023/06/30 05:36:06;;;;;;;7.97;4.27;;;15.50;99.90;;;;;;5068316;28;20426;-93
2023/06/30 05:38:31;;;;;;;7.15;3.65;;;15.50;99.90;;;;;;5069285;28;20488;-93
2023/06/30 05:40:58;;;;;;;7.72;3.25;;;15.60;99.90;;;;;;5052743;28;20442;-93
2023/06/30 05:43:24;;;;;;;5.97;2.87;;;15.90;99.90;;;;;;5068735;28;20413;-93
2023/06/30 05:45:50;;;;;;;5.85;2.33;;;16.00;99.90;;;;;;5052564;28;20522;-93
2023/06/30 05:48:16;;;;;;;6.90;1.90;;;16.10;99.90;;;;;;5052898;28;20451;-93
2023/06/30 05:50:42;;;;;;;6.35;1.70;;;16.20;99.90;;;;;;5052546;28;20424;-93
2023/06/30 05:53:08;;;;;;;7.32;2.00;;;16.40;99.90;;;;;;5052804;28;20410;-92
2023/06/30 05:55:34;;;;;;;6.65;1.48;;;16.50;99.90;;;;;;5051758;28;20429;-93
2023/06/30 05:57:59;;;;;;;5.97;1.40;;;16.40;99.90;;;;;;5052186;28;20406;-93
2023/06/30 06:00:25;;;;;;;7.10;1.38;;;16.60;99.90;;;;;;5071363;28;20402;-91
2023/06/30 06:02:51;;;;;;;5.60;1.45;;;16.70;99.90;;;;;;5072693;28;20397;-93
2023/06/30 06:05:19;;;;;;;5.90;1.33;;;17.00;99.90;;;;;;5056803;28;20464;-92
2023/06/30 06:07:45;;;;;;;5.67;1.57;;;17.10;99.90;;;;;;5055810;28;20775;-92
2023/06/30 06:10:11;;;;;;;5.85;1.60;;;16.70;99.90;;;;;;5069616;28;20464;-92
2023/06/30 06:12:39;;;;;;;7.03;1.80;;;16.80;99.90;;;;;;5069292;28;21088;-92
2023/06/30 06:15:06;;;;;;;4.88;1.40;;;17.30;99.90;;;;;;5053194;28;20484;-92
2023/06/30 06:17:32;;;;;;;7.70;2.03;;;17.10;99.90;;;;;;5051969;28;20417;-93
2023/06/30 06:19:58;;;;;;;5.67;1.57;;;17.20;99.90;;;;;;5052632;28;20404;-91
2023/06/30 06:22:24;;;;;;;3.92;1.08;;;17.30;99.90;;;;;;5052947;28;20422;-92
2023/06/30 06:24:49;;;;;;;4.88;1.25;;;17.60;99.90;;;;;;5052449;28;20415;-92
2023/06/30 06:27:15;;;;;;;5.13;1.00;;;17.60;99.90;;;;;;5052616;28;20411;-91
2023/06/30 06:29:41;;;;;;;6.00;0.88;;;17.70;99.90;;;;;;5052113;28;20495;-91
2023/06/30 06:32:07;;;;;;;6.50;0.80;;;17.80;99.90;;;;;;5052726;28;20498;-93
2023/06/30 06:34:33;;;;;;;6.43;1.05;;;17.80;99.90;;;;;;5052395;28;20517;-91
2023/06/30 06:37:00;;;;;;;4.85;0.80;;;17.70;99.90;;;;;;5052567;28;20410;-93
2023/06/30 06:39:26;;;;;;;5.67;0.80;;;17.60;99.90;;;;;;5052322;28;20408;-92
2023/06/30 06:41:52;;;;;;;6.18;0.80;;;17.50;99.90;;;;;;5052896;28;20473;-92
2023/06/30 06:44:17;;;;;;;3.75;0.80;;;17.50;99.90;;;;;;5052478;28;20415;-91
2023/06/30 06:46:43;;;;;;;5.35;0.82;;;17.70;99.90;;;;;;5052237;28;20912;-90
2023/06/30 06:49:09;;;;;;;6.20;0.80;;;17.80;99.90;;;;;;5052993;28;20423;-90
2023/06/30 06:51:35;;;;;;;5.45;0.85;;;17.60;99.90;;;;;;5052044;28;20418;-92
2023/06/30 06:54:00;;;;;;;4.40;0.60;;;17.60;99.90;;;;;;5052773;28;20764;-90
2023/06/30 06:56:26;;;;;;;4.32;0.70;;;17.70;99.90;;;;;;5052106;28;20403;-92
2023/06/30 06:58:52;;;;;;;6.17;0.80;;;18.30;99.90;;;;;;5051991;28;20408;-91
2023/06/30 07:01:17;;;;;;;4.25;0.60;;;18.20;99.90;;;;;;5068786;28;20493;-91
2023/06/30 07:03:43;;;;;;;5.25;0.70;;;18.50;99.90;;;;;;5051727;28;20477;-89
2023/06/30 07:06:09;;;;;;;3.23;0.40;;;18.70;99.90;;;;;;5052329;28;20411;-92
2023/06/30 07:08:36;;;;;;;5.35;0.50;;;18.60;99.90;;;;;;5051397;28;20404;-91
2023/06/30 07:11:03;;;;;;;2.58;0.40;;;18.80;99.90;;;;;;5051999;28;20938;-90
2023/06/30 07:13:29;;;;;;;2.92;0.60;;;18.60;99.90;;;;;;5051980;28;20433;-92
2023/06/30 07:15:55;;;;;;;5.05;0.60;;;18.50;99.90;;;;;;5051551;28;20439;-93
2023/06/30 07:18:22;;;;;;;4.10;0.60;;;18.40;99.90;;;;;;5052283;28;20446;-92
2023/06/30 07:20:48;;;;;;;5.00;0.70;;;18.30;99.90;;;;;;5051659;28;20400;-92
2023/06/30 07:23:14;;;;;;;4.40;0.70;;;18.20;99.90;;;;;;5051834;28;21162;-92
2023/06/30 07:25:40;;;;;;;3.60;0.55;;;18.30;99.90;;;;;;5051450;28;20494;-93
2023/06/30 07:28:06;;;;;;;3.88;0.50;;;18.20;99.90;;;;;;5068963;28;20454;-92
2023/06/30 07:30:32;;;;;;;4.97;0.60;;;18.40;99.90;;;;;;5051208;28;20451;-91
2023/06/30 07:32:58;;;;;;;4.90;0.50;;;18.20;99.90;;;;;;5051699;28;20454;-91
2023/06/30 07:35:24;;;;;;;4.78;0.63;;;19.00;99.90;;;;;;5051324;28;20431;-94
2023/06/30 07:37:50;;;;;;;3.60;0.50;;;18.60;99.90;;;;;;5050968;28;20745;-91
2023/06/30 07:40:17;;;;;;;3.22;0.55;;;18.90;99.90;;;;;;5051546;28;20518;-91
2023/06/30 07:42:46;;;;;;;5.00;0.57;;;19.30;99.90;;;;;;5050688;28;20407;-90
2023/06/30 07:45:14;;;;;;;4.32;0.50;;;19.00;99.90;;;;;;5051683;28;20400;-92
2023/06/30 07:47:40;;;;;;;5.97;0.57;;;19.20;99.90;;;;;;5067509;28;20847;-92
2023/06/30 07:50:12;;;;;;;2.70;0.50;;;19.00;99.90;;;;;;5051212;28;20396;-90
2023/06/30 07:52:50;;;;;;;3.97;0.90;;;19.20;99.90;;;;;;5051113;28;20498;-91
2023/06/30 07:55:17;;;;;;;3.33;0.80;;;19.20;99.90;;;;;;5051093;28;20443;-90
2023/06/30 07:57:47;;;;;;;4.37;0.63;;;19.60;99.90;;;;;;5051532;28;20416;-91
2023/06/30 08:00:18;;;;;;;4.93;0.50;;;19.70;99.90;;;;;;5050916;28;20761;-92
2023/06/30 08:02:45;;;;;;;4.93;0.57;;;20.00;99.90;;;;;;5051405;28;20404;-92
2023/06/30 08:05:11;;;;;;;5.32;0.40;;;20.10;99.90;;;;;;5050996;28;20420;-92
2023/06/30 08:07:37;;;;;;;3.70;0.40;;;20.30;99.90;;;;;;5050803;28;20427;-91
2023/06/30 08:10:03;;;;;;;2.20;0.50;;;20.20;99.90;;;;;;5067544;28;20884;-91
2023/06/30 08:12:28;;;;;;;4.00;0.40;;;19.70;99.90;;;;;;5050899;28;20408;-92
2023/06/30 08:14:54;;;;;;;3.88;0.57;;;19.60;99.90;;;;;;5067674;28;20498;-91
2023/06/30 08:17:20;;;;;;;3.47;0.70;;;19.60;99.90;;;;;;5050383;28;20396;-91
2023/06/30 08:19:46;;;;;;;3.30;0.52;;;19.80;99.90;;;;;;5050731;28;20404;-93
2023/06/30 08:22:13;;;;;;;4.43;0.50;;;20.00;99.90;;;;;;5049693;28;20419;-92
2023/06/30 08:24:42;;;;;;;3.07;0.40;;;20.40;99.90;;;;;;5050729;28;20477;-91
2023/06/30 08:27:08;;;;;;;2.60;0.40;;;20.10;99.90;;;;;;5050762;28;20446;-92
2023/06/30 08:29:35;;;;;;;4.23;0.70;;;20.50;99.90;;;;;;5050396;28;20427;-91
2023/06/30 08:32:01;;;;;;;2.80;0.50;;;20.20;99.90;;;;;;5048661;28;20396;-85
2023/06/30 08:34:26;;;;;;;2.10;0.40;;;20.50;99.90;;;;;;5047201;28;20432;-84
2023/06/30 08:36:53;;;;;;;4.17;0.57;;;20.70;99.90;;;;;;5064535;28;20411;-86
2023/06/30 08:39:19;;;;;;;3.03;0.80;;;20.90;99.90;;;;;;5047542;28;21132;-87
2023/06/30 08:41:47;;;;;;;3.97;0.60;;;20.30;98.10;;;;;;5047993;28;20887;-85
2023/06/30 08:44:14;;;;;;;3.95;0.40;;;20.00;99.90;;;;;;5066311;28;20425;-86
2023/06/30 08:46:39;;;;;;;3.60;0.50;;;19.80;99.90;;;;;;5065536;28;20744;-87
2023/06/30 08:49:06;;;;;;;3.83;0.40;;;20.10;96.80;;;;;;5067754;28;20413;-85
2023/06/30 08:51:33;;;;;;;2.72;0.32;;;20.10;99.90;;;;;;5067871;28;20860;-87
2023/06/30 08:53:59;;;;;;;3.55;0.35;;;20.20;99.90;;;;;;5067877;28;20400;-86
2023/06/30 08:56:27;;;;;;;2.75;0.40;;;20.40;97.70;;;;;;5067465;28;20402;-85
2023/06/30 08:58:52;;;;;;;4.32;0.40;;;20.50;94.00;;;;;;5067976;28;20406;-87
2023/06/30 09:01:19;;;;;;;2.70;0.40;;;20.60;99.20;;;;;;5050672;28;20424;-85
2023/06/30 09:03:45;;;;;;;2.92;0.40;;;20.70;95.40;;;;;;5050740;28;20413;-85
2023/06/30 09:06:12;;;;;;;3.35;0.52;;;21.00;99.90;;;;;;5067288;28;20410;-89
2023/06/30 09:08:51;;;;;;;3.75;0.35;;;21.10;99.60;;;;;;5067653;28;20421;-85
2023/06/30 09:11:18;;;;;;;3.53;0.40;;;21.30;91.20;;;;;;5051208;28;20410;-87
2023/06/30 09:13:45;;;;;;;2.40;0.40;;;21.40;97.10;;;;;;5050458;28;20414;-85
2023/06/30 09:16:15;;;;;;;3.63;0.50;;;21.30;97.20;;;;;;5067721;28;20426;-85
2023/06/30 09:18:42;;;;;;;5.63;0.70;;;21.50;91.00;;;;;;5067286;28;20484;-85
2023/06/30 09:21:08;;;;;;;3.92;0.50;;;21.60;92.20;;;;;;5067213;28;20405;-87
2023/06/30 09:23:34;;;;;;;2.80;0.50;;;21.60;77.10;;;;;;5050727;28;20410;-86
2023/06/30 09:26:00;;;;;;;3.53;0.50;;;21.50;90.20;;;;;;5050163;28;20421;-85
2023/06/30 09:28:34;;;;;;;3.00;0.50;;;21.80;93.10;;;;;;5067753;28;20747;-84
2023/06/30 09:31:00;;;;;;;3.65;0.60;;;21.80;86.10;;;;;;5050219;28;20463;-85
2023/06/30 09:33:28;;;;;;;2.70;0.55;;;21.60;82.90;;;;;;5067990;28;20817;-84
2023/06/30 09:35:56;;;;;;;3.63;0.40;;;21.50;78.50;;;;;;5071115;28;20839;-86
2023/06/30 09:38:21;;;;;;;3.00;0.60;;;21.40;91.60;;;;;;5071218;28;20483;-87
2023/06/30 09:40:48;;;;;;;3.75;0.63;;;21.50;87.30;;;;;;5055175;28;20410;-86
2023/06/30 09:43:22;;;;;;;3.10;0.40;;;21.60;71.30;;;;;;5070725;28;21144;-85
2023/06/30 09:45:54;;;;;;;2.42;0.40;;;21.20;70.80;;;;;;5071158;28;20857;-84
2023/06/30 09:48:20;;;;;;;2.05;0.50;;;21.20;90.70;;;;;;5070669;28;20935;-85
2023/06/30 09:50:45;;;;;;;3.47;0.60;;;21.60;95.10;;;;;;5071252;28;20842;-84
2023/06/30 09:53:17;;;;;;;3.40;0.40;;;22.30;92.10;;;;;;5070686;28;20406;-87
2023/06/30 09:55:51;;;;;;;3.03;0.47;;;22.50;79.10;;;;;;5070977;28;20438;-85
2023/06/30 09:58:18;;;;;;;3.10;0.40;;;22.80;73.50;;;;;;5071124;28;20488;-86
2023/06/30 10:00:45;;;;;;;3.50;0.60;;;22.70;65.80;;;;;;5053759;28;20420;-84
2023/06/30 10:03:15;;;;;;;3.75;0.55;;;22.80;74.00;;;;;;5054590;28;20819;-85
2023/06/30 10:05:40;;;;;;;3.63;0.40;;;23.00;71.80;;;;;;5070359;28;21020;-84
2023/06/30 10:08:07;;;;;;;3.87;0.60;;;23.20;65.30;;;;;;5070928;28;20513;-85
2023/06/30 10:10:33;;;;;;;2.55;0.40;;;23.30;61.90;;;;;;5070283;28;20410;-86
2023/06/30 10:12:59;;;;;;;3.57;0.40;;;23.50;62.10;;;;;;5070930;28;20421;-85
2023/06/30 10:15:25;;;;;;;3.03;0.50;;;23.40;57.20;;;;;;5070427;28;20451;-85
2023/06/30 10:17:54;;;;;;;2.67;0.40;;;22.80;52.30;;;;;;5070437;28;20398;-84
2023/06/30 10:20:20;;;;;;;1.90;0.40;;;22.40;54.40;;;;;;5070891;28;20401;-84
2023/06/30 10:22:46;;;;;;;5.40;0.60;;;22.40;67.00;;;;;;5069936;28;20390;-85
2023/06/30 10:25:14;;;;;;;3.88;0.52;;;22.20;60.80;;;;;;5054266;28;20410;-84
2023/06/30 10:27:41;;;;;;;4.70;0.50;;;22.20;61.80;;;;;;5053406;28;20928;-84
2023/06/30 10:30:07;;;;;;;3.92;0.52;;;22.00;71.30;;;;;;5070092;28;20480;-84
2023/06/30 10:32:33;;;;;;;3.58;0.40;;;22.20;71.00;;;;;;5070054;28;20414;-83
2023/06/30 10:35:00;;;;;;;2.55;0.50;;;22.30;66.70;;;;;;5069698;28;20520;-85
2023/06/30 10:37:26;;;;;;;1.45;0.40;;;22.30;66.50;;;;;;5070140;28;20397;-85
2023/06/30 10:39:52;;;;;;;4.37;0.53;;;21.90;59.80;;;;;;5069741;28;20398;-84
2023/06/30 10:42:20;;;;;;;2.97;0.52;;;21.60;64.70;;;;;;5053849;28;20404;-85
2023/06/30 10:44:47;;;;;;;6.13;0.70;;;21.40;68.20;;;;;;5069654;28;20417;-84
2023/06/30 10:47:14;;;;;;;2.43;0.50;;;21.40;65.80;;;;;;5088144;28;20414;-85
2023/06/30 10:49:41;;;;;;;3.33;0.55;;;21.90;70.40;;;;;;5069980;28;20417;-83
2023/06/30 10:52:12;;;;;;;3.50;0.30;;;22.80;76.20;;;;;;5069877;28;20407;-84
2023/06/30 10:54:42;;;;;;;4.00;0.60;;;23.60;66.50;;;;;;5053021;28;20990;-86
2023/06/30 10:57:15;;;;;;;3.20;0.70;;;24.20;55.50;;;;;;5088047;28;20489;-86
2023/06/30 10:59:42;;;;;;;2.63;0.50;;;24.40;52.70;;;;;;5070126;28;20413;-86
2023/06/30 11:02:17;;;;;;;3.10;0.50;;;24.20;52.10;;;;;;5052725;28;20906;-85
2023/06/30 11:04:45;;;;;;;3.30;0.43;;;23.70;51.70;;;;;;5069639;28;20421;-88
2023/06/30 11:07:16;;;;;;;4.13;0.60;;;23.30;52.30;;;;;;5069913;28;20410;-86
2023/06/30 11:09:48;;;;;;;3.10;0.50;;;23.20;52.80;;;;;;5052982;28;20446;-86
2023/06/30 11:12:18;;;;;;;2.85;0.43;;;23.30;56.70;;;;;;5053675;28;20487;-85
2023/06/30 11:15:23;;;;;;;1.85;0.40;;;23.80;55.30;;;;;;5069200;28;20933;-89
2023/06/30 11:17:51;;;;;;;2.88;0.40;;;24.30;50.40;;;;;;5069123;28;20418;-84
2023/06/30 11:20:18;;;;;;;2.47;0.40;;;24.30;51.10;;;;;;5069479;28;20429;-85
2023/06/30 11:23:06;;;;;;;3.70;0.53;;;24.20;53.00;;;;;;5068945;28;20474;-86
2023/06/30 11:25:34;;;;;;;2.15;0.70;;;24.00;52.00;;;;;;5069749;28;20808;-84
2023/06/30 11:28:04;;;;;;;3.58;0.50;;;23.70;53.70;;;;;;5068971;28;20456;-85
2023/06/30 11:30:38;;;;;;;3.00;0.50;;;23.60;53.60;;;;;;5069345;28;20938;-85
2023/06/30 11:33:05;;;;;;;4.00;0.70;;;23.30;55.20;;;;;;5069213;28;20763;-85
2023/06/30 11:35:33;;;;;;;4.82;0.80;;;23.70;60.80;;;;;;5068815;28;20421;-85
2023/06/30 11:37:59;;;;;;;2.80;0.52;;;24.00;62.80;;;;;;5069240;28;20399;-85
2023/06/30 11:40:24;;;;;;;2.80;0.55;;;24.20;57.90;;;;;;5052258;28;20463;-87
2023/06/30 11:42:52;;;;;;;3.55;0.75;;;24.30;52.50;;;;;;5069338;28;20497;-86
2023/06/30 11:45:20;;;;;;;3.03;0.50;;;24.40;51.40;;;;;;5068655;28;20409;-85
2023/06/30 11:47:49;;;;;;;3.10;0.70;;;24.50;52.90;;;;;;5052292;28;20433;-89
2023/06/30 11:50:15;;;;;;;4.53;0.90;;;24.50;54.40;;;;;;5069032;28;20762;-85
2023/06/30 11:52:41;;;;;;;4.35;0.70;;;24.30;52.40;;;;;;5068418;28;20406;-85
2023/06/30 11:55:09;;;;;;;3.28;0.60;;;24.20;53.00;;;;;;5068495;28;20505;-85
2023/06/30 11:57:36;;;;;;;2.90;0.50;;;24.00;52.80;;;;;;5067293;28;20489;-85
2023/06/30 12:00:12;;;;;;;2.60;0.60;;;23.80;55.40;;;;;;5068844;28;20471;-85
2023/06/30 12:02:43;;;;;;;3.28;0.50;;;23.80;56.10;;;;;;5068557;28;20827;-87
2023/06/30 12:05:17;;;;;;;2.95;0.50;;;23.70;57.10;;;;;;5068483;28;20402;-86
2023/06/30 12:07:45;;;;;;;2.95;0.63;;;23.90;54.40;;;;;;5052037;28;21006;-87
2023/06/30 12:10:11;;;;;;;2.55;0.50;;;24.30;54.40;;;;;;5051334;28;20483;-84
2023/06/30 12:12:37;;;;;;;2.67;0.50;;;24.40;52.40;;;;;;5068539;28;20471;-85
2023/06/30 12:15:09;;;;;;;3.87;0.87;;;24.40;52.10;;;;;;5067835;28;20434;-86
2023/06/30 12:17:36;;;;;;;3.35;0.68;;;24.30;52.50;;;;;;5068684;28;21156;-85
2023/06/30 12:20:03;;;;;;;2.25;0.60;;;24.40;53.30;;;;;;5068062;28;20402;-85
2023/06/30 12:22:30;;;;;;;7.63;0.88;;;24.70;56.20;;;;;;5067989;28;20442;-86
2023/06/30 12:24:57;;;;;;;3.23;0.63;;;25.40;57.00;;;;;;5068437;28;20489;-85
2023/06/30 12:27:26;;;;;;;3.20;0.80;;;26.00;49.30;;;;;;5067682;28;20410;-84
2023/06/30 12:29:51;;;;;;;3.63;0.68;;;26.40;48.70;;;;;;5051701;28;20398;-87
2023/06/30 12:32:17;;;;;;;4.70;0.80;;;26.70;48.60;;;;;;5051169;28;20463;-88
2023/06/30 12:34:45;;;;;;;4.68;0.90;;;26.70;46.70;;;;;;5047953;28;20432;-85
2023/06/30 12:37:11;;;;;;;6.38;0.90;;;26.30;43.70;;;;;;5064152;28;20410;-86
2023/06/30 12:39:37;;;;;;;2.10;0.57;;;26.20;45.10;;;;;;5064881;28;20848;-86
2023/06/30 12:42:03;;;;;;;3.60;0.80;;;26.50;46.60;;;;;;5064415;28;20518;-85